Armada Township, Michigan
Current Conditions -  °F | °C
As of 8:58 PM on Friday 21 Nov 2014 (Local Time) from KMTC Reporting Station
Clear Clear  
Wind Chill: 11°   Ceiling: Unl
Heat Index: 19°   Visibility: 10mi
Dew Point: 13°   Wind: 6mph
Humidity: 78%   Direction: 200°SSW
Pressure: 30.37"   Gusts: NA
Location:  42.8463°N, 82.9201°W
Report Text: KMTC 220158Z AUTO 20005KT 10SM CLR M07/M10 A3037 RMK AO2 SLP300 T10731105
Loading
Personal Weather Stations






























Interactive Weather Map New forecast layout! Learn more

10-Day Weather Forecast

Advertisements
Track Severe Weather on mobile